Toyofujimaru No.2 — 7JDI — position and weather

sailwx.info

Track history (hours):
 
Tides and Currents Weather Stations Pressure Air Temp Water Temp Dewpoint Dewpoint Depression Visibility Wind Speed Wind Dir Waves Ship Positions

Toyofujimaru No.2

Last reported at 2015-Jul-04 05:18 UTC. Time now 2015-Jul-05 09:28 UTC.
Position N 34°31' E 135°23'.

Length 165 m; draft 6 m.

Type: Cargo ship. MMSI: 432667000.

Date/timePositionNaut miles runAvg speedWind from/ knotsBaromVisibWave heightAir tempDewpointWater temp
2015-Jul-04 05:18N 34°31' E 135°23'0 0.0
2015-Jul-04 02:29N 34°31' E 135°23'4 4.0
2015-Jul-04 01:33N 34°33' E 135°19'1312.6
2015-Jul-04 00:33N 34°25' E 135°07'1717.3
2015-Jul-03 23:33N 34°09' E 134°59'  
2015-Jun-29 15:28N 22°03' E 113°51'1213.1
2015-Jun-29 14:33N 22°14' E 113°48'2713.1
2015-Jun-29 12:28N 22°41' E 113°41'1010.9
2015-Jun-29 11:33N 22°49' E 113°36'10 9.6
2015-Jun-29 10:33N 22°58' E 113°32'2 2.3
2015-Jun-29 09:32N 23°01' E 113°32'0 0.0
2015-Jun-29 08:19N 23°01' E 113°32'0 0.0
2015-Jun-29 07:25N 23°01' E 113°32'0 0.0
2015-Jun-29 06:31N 23°01' E 113°32'0 0.0
2015-Jun-29 05:31N 23°01' E 113°32'0 0.0
2015-Jun-29 04:31N 23°01' E 113°32'0 0.0
2015-Jun-29 03:31N 23°01' E 113°32'0 0.0
2015-Jun-29 02:25N 23°01' E 113°32'0 0.1
2015-Jun-29 01:34N 23°01' E 113°32'8 8.4
2015-Jun-29 00:34N 22°53' E 113°34'1111.0
2015-Jun-28 23:31N 22°43' E 113°41'2014.1
2015-Jun-28 22:06N 22°24' E 113°46'713.4
2015-Jun-28 21:33N 22°16' E 113°48'9 9.2
2015-Jun-28 20:33N 22°07' E 113°48'0 0.1
2015-Jun-28 19:28N 22°07' E 113°48'0 0.1
2015-Jun-28 18:28N 22°07' E 113°48'0 0.0
2015-Jun-28 17:16N 22°07' E 113°48'0 0.0
2015-Jun-28 16:28N 22°07' E 113°48'0 0.0
2015-Jun-28 15:28N 22°07' E 113°48'2 2.6
2015-Jun-28 14:31N 22°06' E 113°50'2015.9
2015-Jun-28 13:16N 22°11' E 114°11'811.6
2015-Jun-28 12:33N 22°17' E 114°06'4 3.6
2015-Jun-28 11:31N 22°21' E 114°07'0 0.0
2015-Jun-28 06:16N 22°21' E 114°07'0 0.0
2015-Jun-28 05:19N 22°21' E 114°07'3 3.5
2015-Jun-28 04:33N 22°18' E 114°06'1110.4
2015-Jun-28 03:29N 22°10' E 114°13'1010.6
2015-Jun-28 02:33N 22°09' E 114°24'29118.0
2015-Jun-27 10:24N 24°09' E 119°11'1719.0
2015-Jun-27 09:30N 24°17' E 119°28'  
2015-Jun-25 01:19N 33°39' E 130°24'0 0.0
2015-Jun-25 00:31N 33°39' E 130°24'0 0.0
2015-Jun-24 23:31N 33°39' E 130°24'0 0.1
2015-Jun-24 22:32N 33°39' E 130°24'7 6.9
2015-Jun-24 21:33N 33°39' E 130°16'1 0.7
2015-Jun-24 20:31N 33°39' E 130°15'0 0.0
2015-Jun-24 19:31N 33°39' E 130°15'0 0.0
2015-Jun-24 18:31N 33°39' E 130°15'0 0.0
2015-Jun-24 17:31N 33°39' E 130°15'0 0.0
2015-Jun-24 16:25N 33°39' E 130°15'0 0.1
2015-Jun-24 15:31N 33°39' E 130°16'0 0.0
2015-Jun-24 14:28N 33°39' E 130°15'0 0.0
2015-Jun-24 13:25N 33°39' E 130°15'0 0.0
2015-Jun-24 12:25N 33°39' E 130°15'4 2.0
2015-Jun-24 10:33N 33°43' E 130°16'1918.3
2015-Jun-24 09:32N 33°58' E 130°29'  
Track history (hours):
 
Tides and Currents Weather Stations Pressure Air Temp Water Temp Dewpoint Dewpoint Depression Visibility Wind Speed Wind Dir Waves Ship Positions

Toyofujimaru No.2

Last reported at 2015-Jul-04 05:18 UTC. Time now 2015-Jul-05 09:28 UTC.
Position N 34°31' E 135°23'.

Length 165 m; draft 6 m.

Type: Cargo ship. MMSI: 432667000.

Date/timePositionNaut miles runAvg speedWind from/ knotsBaromVisibWave heightAir tempDewpointWater temp
2015-Jul-04 05:18N 34°31' E 135°23'0 0.0
2015-Jul-04 02:29N 34°31' E 135°23'4 4.0
2015-Jul-04 01:33N 34°33' E 135°19'1312.6
2015-Jul-04 00:33N 34°25' E 135°07'1717.3
2015-Jul-03 23:33N 34°09' E 134°59'  
2015-Jun-29 15:28N 22°03' E 113°51'1213.1
2015-Jun-29 14:33N 22°14' E 113°48'2713.1
2015-Jun-29 12:28N 22°41' E 113°41'1010.9
2015-Jun-29 11:33N 22°49' E 113°36'10 9.6
2015-Jun-29 10:33N 22°58' E 113°32'2 2.3
2015-Jun-29 09:32N 23°01' E 113°32'0 0.0
2015-Jun-29 08:19N 23°01' E 113°32'0 0.0
2015-Jun-29 07:25N 23°01' E 113°32'0 0.0
2015-Jun-29 06:31N 23°01' E 113°32'0 0.0
2015-Jun-29 05:31N 23°01' E 113°32'0 0.0
2015-Jun-29 04:31N 23°01' E 113°32'0 0.0
2015-Jun-29 03:31N 23°01' E 113°32'0 0.0
2015-Jun-29 02:25N 23°01' E 113°32'0 0.1
2015-Jun-29 01:34N 23°01' E 113°32'8 8.4
2015-Jun-29 00:34N 22°53' E 113°34'1111.0
2015-Jun-28 23:31N 22°43' E 113°41'2014.1
2015-Jun-28 22:06N 22°24' E 113°46'713.4
2015-Jun-28 21:33N 22°16' E 113°48'9 9.2
2015-Jun-28 20:33N 22°07' E 113°48'0 0.1
2015-Jun-28 19:28N 22°07' E 113°48'0 0.1
2015-Jun-28 18:28N 22°07' E 113°48'0 0.0
2015-Jun-28 17:16N 22°07' E 113°48'0 0.0
2015-Jun-28 16:28N 22°07' E 113°48'0 0.0
2015-Jun-28 15:28N 22°07' E 113°48'2 2.6
2015-Jun-28 14:31N 22°06' E 113°50'2015.9
2015-Jun-28 13:16N 22°11' E 114°11'811.6
2015-Jun-28 12:33N 22°17' E 114°06'4 3.6
2015-Jun-28 11:31N 22°21' E 114°07'0 0.0
2015-Jun-28 06:16N 22°21' E 114°07'0 0.0
2015-Jun-28 05:19N 22°21' E 114°07'3 3.5
2015-Jun-28 04:33N 22°18' E 114°06'1110.4
2015-Jun-28 03:29N 22°10' E 114°13'1010.6
2015-Jun-28 02:33N 22°09' E 114°24'29118.0
2015-Jun-27 10:24N 24°09' E 119°11'1719.0
2015-Jun-27 09:30N 24°17' E 119°28'  
2015-Jun-25 01:19N 33°39' E 130°24'0 0.0
2015-Jun-25 00:31N 33°39' E 130°24'0 0.0
2015-Jun-24 23:31N 33°39' E 130°24'0 0.1
2015-Jun-24 22:32N 33°39' E 130°24'7 6.9
2015-Jun-24 21:33N 33°39' E 130°16'1 0.7
2015-Jun-24 20:31N 33°39' E 130°15'0 0.0
2015-Jun-24 19:31N 33°39' E 130°15'0 0.0
2015-Jun-24 18:31N 33°39' E 130°15'0 0.0
2015-Jun-24 17:31N 33°39' E 130°15'0 0.0
2015-Jun-24 16:25N 33°39' E 130°15'0 0.1
2015-Jun-24 15:31N 33°39' E 130°16'0 0.0
2015-Jun-24 14:28N 33°39' E 130°15'0 0.0
2015-Jun-24 13:25N 33°39' E 130°15'0 0.0
2015-Jun-24 12:25N 33°39' E 130°15'4 2.0
2015-Jun-24 10:33N 33°43' E 130°16'1918.3
2015-Jun-24 09:32N 33°58' E 130°29'  

Dump ship's entire track history